EST,Max TemperatureF,Mean TemperatureF,Min TemperatureF,Max Dew PointF,MeanDew PointF,Min DewpointF,Max Humidity, Mean Humidity, Min Humidity, Max Sea Level PressureIn, Mean Sea Level PressureIn, Min Sea Level PressureIn, Max VisibilityMiles, Mean VisibilityMiles, Min VisibilityMiles, Max Wind SpeedMPH, Mean Wind SpeedMPH, Max Gust SpeedMPH,PrecipitationIn, CloudCover, Events, WindDirDegrees
2012-12-1,48,44,39,43,40,37,97,89,80,30.46,30.41,30.36,5,2,0,7,3,,0.00,3,Fog,3
2012-12-2,59,48,41,50,43,38,97,89,72,30.40,30.29,30.16,10,3,0,12,3,,0.00,5,Fog-Rain,157
2012-12-3,57,52,46,50,47,44,93,84,72,30.26,30.21,30.15,10,7,2,10,2,,0.00,2,,136
2012-12-4,66,56,50,52,50,47,89,82,52,30.25,30.16,30.01,10,8,4,9,5,,0.00,5,,139
2012-12-5,66,55,43,49,36,25,60,48,33,30.31,30.14,29.99,10,10,10,16,10,23,0.00,2,Rain,306
2012-12-6,42,40,37,30,26,24,76,59,51,30.40,30.33,30.28,10,10,10,10,7,,0.00,0,,30
2012-12-7,51,45,39,48,42,31,93,83,73,30.26,30.10,29.98,10,8,1,9,4,,0.55,8,Rain,159
2012-12-8,53,50,48,51,49,47,97,93,89,30.03,29.95,29.91,5,2,0,9,2,,0.00,8,Fog,150
2012-12-9,52,50,48,49,48,46,96,91,83,30.19,30.10,29.99,9,3,0,12,3,,0.18,8,Fog-Rain,37
2012-12-10,64,56,48,61,54,46,97,92,75,29.95,29.68,29.60,10,3,0,10,4,,0.00,7,Fog,152
2012-12-11,64,54,42,58,39,30,83,65,47,30.23,29.96,29.63,10,10,6,14,8,24,0.19,6,Rain,317
2012-12-12,46,42,39,34,30,27,76,60,46,30.44,30.37,30.23,10,10,10,8,4,,0.00,0,,1
2012-12-13,48,42,35,32,29,24,82,61,39,30.47,30.41,30.36,10,10,8,10,5,,0.00,0,,5
2012-12-14,55,42,30,40,30,24,89,67,31,30.35,30.29,30.22,10,10,7,8,2,,0.00,0,,247
2012-12-15,50,44,37,41,37,33,89,75,56,30.32,30.24,30.16,10,8,6,9,3,,0.00,1,,112
2012-12-16,51,50,48,49,47,42,96,89,80,30.16,29.95,29.83,10,5,1,12,6,,0.07,8,Rain,140
2012-12-17,53,52,50,52,49,48,97,94,92,29.86,29.77,29.57,5,1,0,12,3,,0.07,8,Fog-Rain,121
2012-12-18,61,53,44,51,43,30,97,72,42,29.81,29.63,29.54,10,8,2,20,7,29,0.00,3,,266
2012-12-19,54,46,39,37,34,30,77,59,49,30.19,29.98,29.82,10,10,10,15,5,22,0.00,3,,317
2012-12-20,48,44,41,41,35,33,82,69,59,30.22,30.11,29.85,10,10,8,20,5,,0.01,2,Rain,126
2012-12-21,59,50,41,56,31,22,96,58,43,29.54,29.37,29.24,10,8,2,30,18,39,0.38,7,Rain,253
2012-12-22,45,41,36,24,22,21,55,47,39,30.03,29.82,29.55,10,10,10,23,14,40,0.00,3,,288
2012-12-23,46,39,32,31,24,18,76,56,41,30.09,30.01,29.92,10,10,8,13,5,,0.00,0,,230
2012-12-24,41,37,33,38,33,24,93,79,60,30.11,30.00,29.91,10,6,2,9,4,,0.14,5,Rain,76
2012-12-25,48,42,36,38,36,30,96,81,56,30.27,30.07,29.90,10,6,2,14,5,,0.00,4,,334
2012-12-26,52,44,36,47,32,27,96,79,65,30.27,29.83,29.36,10,5,1,25,12,40,0.86,7,Rain-Snow,57
2012-12-27,42,40,39,29,27,25,65,58,51,29.99,29.78,29.62,10,10,10,20,16,36,0.00,6,,296
2012-12-28,44,40,35,33,29,26,83,66,53,30.16,30.11,30.06,10,10,8,8,4,,0.00,0,,314
2012-12-29,42,38,35,35,33,28,93,82,60,30.04,29.75,29.58,10,5,1,16,7,25,0.14,7,Rain-Snow,17
2012-12-30,55,47,39,27,23,19,60,37,26,30.34,30.09,29.81,10,10,10,21,11,33,0.00,5,,288
2012-12-31,52,44,37,28,23,19,68,45,31,30.33,30.19,30.01,10,10,10,9,4,,0.00,3,,231